HDH weather

Dillingham Airfield
Mokuleia, Hawaii, United States

Public forecast

Using degrees Fahrenheit for public forecast. Weather courtesy of forecast.io.

METAR (pilot weather report)

Closest report is Wheeler Army Airfield, 10.5 nm (19.4 km) ESE. Retrieved 2019/04/22 18:56 UTC (47 minutes ago):

PHHI 221856Z AUTO 12007KT 10SM CLR 25/17 A3019 RMK AO2 SLP213 T02450172 $

TAF (pilot weather forecast)

Forecast is more than 12 hours old.

Closest forecast is Wheeler Army Airfield, 10.5 nm (19.4 km) ESE. Retrieved 2019/04/18 23:09 UTC (4 days ago):

TAF PHHI 182300Z 1823/2005 07009KT 9999 FEW030 QNH3000INS TEMPO 1900/1904 9999 09010G15KT SCT030 BECMG 1908/1909 VRB06KT 9999 SCT025 QNH3005INS TX26/1823Z TN19/1916Z